Latest Weather Observations for Mudgee

IDN60801

Issued at 12:33 pm EDT Saturday 28 March 2015 (issued every 30 minutes, with the page automatically refreshed every 10 minutes)

About weather observations | Map of weather stations | Latest weather observations for NSW | Other Formats
Station Details ID: 062101 Name: MUDGEE AIRPORT AWS Lat: -32.56 Lon: 149.61 Height: 471.0 m
Data from the previous 72 hours. | See also: Recent months at Mudgee
Date/Time
EDT
Temp
°C
App
Temp
°C
Dew
Point
Rel
Hum
%
Delta-T
°C
Wind Press
QNH
hPa
Press
MSL
hPa
Rain
since 9 am
mm
Dir
 
Spd
km/h
Gust
km/h
Spd
kts
Gust
kts
28/12:30pm 21.1 17.0 2.4 29 8.9 NNW 13 20 7 11 1023.3 1021.6 0.0
28/12:00pm 20.4 17.4 4.0 34 8.0 S 9 13 5 7 1023.7 1022.0 0.0
28/11:30am 19.1 16.0 3.7 36 7.5 W 9 17 5 9 1024.0 1022.3 0.0
28/11:00am 18.4 15.9 3.8 38 7.0 SSW 6 11 3 6 1024.3 1022.6 0.0
28/10:30am 17.1 13.7 3.8 41 6.4 S 11 17 6 9 1024.5 1022.8 0.0
28/10:00am 15.6 12.7 4.6 48 5.3 S 9 15 5 8 1024.5 1022.8 0.0
28/09:30am 13.3 10.2 5.7 60 3.7 S 11 13 6 7 1024.4 1022.7 0.0
28/09:00am 10.8 8.5 5.8 71 2.4 S 7 9 4 5 1024.4 1022.7 0.0
28/08:30am 8.2 7.0 4.6 78 1.6 CALM 0 0 0 0 1024.3 1022.6 0.0
28/08:00am 6.6 5.0 4.3 85 1.0 ENE 2 6 1 3 1024.1 1022.4 0.0
28/07:30am 4.8 2.5 3.0 88 0.8 ENE 4 7 2 4 1023.9 1022.2 0.0
28/07:00am 5.1 3.5 2.5 83 1.1 CALM 0 0 0 0 1023.5 1021.8 0.0
28/06:30am 5.5 4.1 3.5 87 0.9 CALM 0 0 0 0 1023.2 1021.5 0.0
28/06:00am 5.9 3.4 3.6 85 1.0 ENE 6 7 3 4 1022.8 1021.1 0.0
28/05:30am 5.8 2.3 3.5 85 1.0 NE 11 13 6 7 1022.4 1020.7 0.0
28/05:00am 4.9 2.0 2.4 84 1.0 NNE 7 9 4 5 1022.3 1020.6 0.0
28/04:30am 6.6 4.1 3.6 81 1.3 N 6 7 3 4 1022.1 1020.4 0.0
28/04:00am 5.5 2.6 2.7 82 1.2 NNE 7 11 4 6 1022.0 1020.3 0.0
28/03:30am 6.6 3.9 3.6 81 1.3 NNE 7 9 4 5 1022.1 1020.4 0.0
28/03:00am 8.5 7.1 3.4 70 2.2 CALM 0 0 0 0 1022.3 1020.6 0.0
28/02:30am 8.2 5.7 4.0 75 1.9 ENE 6 7 3 4 1022.5 1020.8 0.0
28/02:00am 8.2 6.8 3.5 72 2.1 CALM 0 6 0 3 1022.6 1020.9 0.0
28/01:30am 9.9 8.3 4.5 69 2.5 S 2 7 1 4 1022.8 1021.1 0.0
28/01:00am 9.7 8.5 4.5 70 2.4 CALM 0 0 0 0 1023.0 1021.3 0.0
28/12:30am 10.5 9.3 4.6 67 2.7 CALM 0 0 0 0 1023.1 1021.4 0.0
28/12:00am 10.7 9.4 4.2 64 3.0 CALM 0 0 0 0 1023.1 1021.4 0.0
 
Date/Time
EDT
Temp
°C
App
Temp
°C
Dew
Point
Rel
Hum
%
Delta-T
°C
Wind Press
QNH
hPa
Press
MSL
hPa
Rain
since 9 am
mm
Dir
 
Spd
km/h
Gust
km/h
Spd
kts
Gust
kts
27/11:30pm 10.8 9.3 3.1 59 3.4 CALM 0 4 0 2 1023.3 1021.6 0.0
27/11:00pm 15.0 12.0 4.1 48 5.1 SSE 9 15 5 8 1023.3 1021.6 0.0
27/10:30pm 15.6 12.5 3.7 45 5.6 S 9 11 5 6 1023.1 1021.4 0.0
27/10:00pm 16.2 13.5 3.6 43 5.9 SE 7 11 4 6 1022.9 1021.2 0.0
27/09:30pm 16.2 13.4 3.3 42 6.1 SSE 7 11 4 6 1022.7 1021.0 0.0
27/09:00pm 16.0 13.3 3.8 44 5.8 SSW 7 11 4 6 1022.5 1020.8 0.0
27/08:30pm 15.4 11.5 3.2 44 5.7 WSW 13 15 7 8 1022.2 1020.5 0.0
27/08:00pm 16.4 11.7 3.1 41 6.2 WSW 17 19 9 10 1021.8 1020.0 0.0
27/07:30pm 17.2 12.0 2.4 37 6.9 W 19 20 10 11 1021.2 1019.5 0.0
27/07:00pm 19.3 13.5 2.2 32 8.0 WSW 22 28 12 15 1020.9 1019.2 0.0
27/06:30pm 20.8 15.3 1.6 28 9.0 WSW 20 28 11 15 1020.7 1019.0 0.0
27/06:00pm 21.7 15.3 0.8 25 9.7 WSW 24 32 13 17 1020.4 1018.7 0.0
27/05:30pm 22.3 16.3 0.8 24 10.1 WSW 22 32 12 17 1020.2 1018.5 0.0
27/05:00pm 22.9 16.8 0.1 22 10.6 SW 22 30 12 16 1020.1 1018.3 0.0
27/04:30pm 23.6 18.3 1.9 24 10.5 W 19 26 10 14 1019.9 1018.1 0.0
27/04:00pm 22.7 17.3 2.2 26 9.9 W 20 33 11 18 1020.1 1018.3 0.0
27/03:30pm 22.5 17.1 1.5 25 10.0 WSW 19 28 10 15 1020.4 1018.7 0.0
27/03:00pm 22.2 16.9 1.8 26 9.7 W 19 30 10 16 1020.8 1019.1 0.0
27/02:30pm 22.2 16.5 0.7 24 10.1 WSW 20 30 11 16 1020.9 1019.2 0.0
27/02:00pm 22.0 16.8 2.2 27 9.5 W 19 32 10 17 1021.2 1019.5 0.0
27/01:30pm 21.5 15.2 1.7 27 9.4 WSW 24 32 13 17 1022.0 1020.3 0.0
27/01:00pm 20.7 14.5 2.0 29 8.8 W 24 35 13 19 1022.4 1020.7 0.0
27/12:30pm 20.0 14.5 1.9 30 8.5 WSW 20 32 11 17 1023.0 1021.3 0.0
27/12:00pm 19.6 13.7 2.0 31 8.2 W 22 32 12 17 1023.3 1021.6 0.0
27/11:30am 18.4 14.2 1.9 33 7.7 WSW 13 22 7 12 1023.7 1022.0 0.0
27/11:00am 16.8 11.7 0.9 34 7.1 WSW 17 24 9 13 1023.9 1022.2 0.0
27/10:30am 16.3 12.1 1.6 37 6.7 SW 13 22 7 12 1023.9 1022.2 0.0
27/10:00am 15.0 12.1 1.2 39 6.1 SE 6 13 3 7 1023.9 1022.2 0.0
27/09:30am 13.6 11.3 0.3 40 5.7 N 2 11 1 6 1023.9 1022.2 0.0
27/09:00am 12.4 9.4 1.1 46 4.9 NW 6 9 3 5 1023.7 1022.0 0.0
27/08:30am 9.6 7.2 4.2 69 2.5 N 6 9 3 5 1023.6 1021.9 0.0
27/08:00am 4.7 1.7 1.9 82 1.1 NNE 7 11 4 6 1023.5 1021.8 0.0
27/07:30am 3.3 -0.3 0.5 82 1.1 NE 9 11 5 6 1023.2 1021.5 0.0
27/07:00am 3.3 0.1 0.5 82 1.1 NE 7 11 4 6 1023.1 1021.4 0.0
27/06:30am 3.2 -0.1 0.3 81 1.1 NE 7 9 4 5 1022.8 1021.1 0.0
27/06:00am 3.7 0.7 0.6 80 1.2 NNE 6 7 3 4 1022.8 1021.1 0.0
27/05:30am 4.3 1.1 1.0 79 1.3 NE 7 9 4 5 1022.6 1020.9 0.0
27/05:00am 4.7 2.1 0.8 76 1.5 NE 4 6 2 3 1022.5 1020.8 0.0
27/04:30am 6.3 4.5 1.4 71 2.0 CALM 0 0 0 0 1022.4 1020.7 0.0
27/04:00am 5.3 3.5 0.9 73 1.8 CALM 0 0 0 0 1022.5 1020.8 0.0
27/03:30am 7.7 5.9 0.9 62 2.8 CALM 0 6 0 3 1022.7 1021.0 0.0
27/03:00am 8.3 5.3 1.0 60 3.0 NW 6 11 3 6 1022.9 1021.2 0.0
27/02:30am 8.7 5.6 1.1 59 3.2 NW 7 9 4 5 1023.1 1021.4 0.0
27/02:00am 8.9 6.6 0.6 56 3.4 SW 2 9 1 5 1023.3 1021.6 0.0
27/01:30am 11.4 8.1 -0.1 45 4.8 SSW 7 11 4 6 1023.2 1021.5 0.0
27/01:00am 12.6 10.6 -0.3 41 5.4 CALM 0 0 0 0 1023.4 1021.7 0.0
27/12:30am 13.3 9.5 -0.7 38 5.9 SSW 9 11 5 6 1023.4 1021.7 0.0
27/12:00am 13.8 10.1 -0.3 38 6.0 S 9 13 5 7 1023.4 1021.7 0.0
 
Date/Time
EDT
Temp
°C
App
Temp
°C
Dew
Point
Rel
Hum
%
Delta-T
°C
Wind Press
QNH
hPa
Press
MSL
hPa
Rain
since 9 am
mm
Dir
 
Spd
km/h
Gust
km/h
Spd
kts
Gust
kts
26/11:30pm 14.8 9.1 -0.5 35 6.6 SSW 19 28 10 15 1023.1 1021.4 0.0
26/11:00pm 14.7 8.6 0.2 37 6.3 SW 22 28 12 15 1023.0 1021.3 0.0
26/10:30pm 15.6 9.7 1.7 39 6.3 SW 22 32 12 17 1022.8 1021.1 0.0
26/10:00pm 16.2 10.6 3.6 43 5.9 SW 22 32 12 17 1022.5 1020.8 0.0
26/09:30pm 17.0 11.9 4.3 43 6.1 SW 20 30 11 16 1022.1 1020.4 0.0
26/09:00pm 17.0 12.1 4.3 43 6.1 SW 19 24 10 13 1021.8 1020.0 0.0
26/08:30pm 17.8 12.2 3.7 39 6.8 WSW 22 30 12 16 1021.3 1019.6 0.0
26/08:00pm 18.2 13.1 3.3 37 7.1 W 19 28 10 15 1020.6 1018.9 0.0
26/07:30pm 19.0 13.6 2.4 33 7.8 WSW 20 28 11 15 1020.2 1018.5 0.0
26/07:00pm 19.9 14.5 2.3 31 8.3 W 20 30 11 16 1020.0 1018.2 0.0
26/06:30pm 21.2 14.7 2.5 29 9.0 W 26 32 14 17 1019.6 1017.8 0.0
26/06:00pm 22.0 14.7 2.2 27 9.5 W 30 39 16 21 1019.1 1017.4 0.0
26/05:30pm 22.6 16.9 2.7 27 9.7 W 22 30 12 16 1018.9 1017.2 0.0
26/05:00pm 22.4 15.7 1.4 25 9.9 W 26 35 14 19 1018.8 1017.1 0.0
26/04:30pm 23.3 16.5 1.0 23 10.6 WNW 26 37 14 20 1018.7 1017.0 0.0
26/04:00pm 23.4 17.1 1.7 24 10.4 W 24 35 13 19 1018.8 1017.1 0.0
26/03:30pm 23.2 17.5 2.7 26 10.0 WSW 22 33 12 18 1019.0 1017.3 0.0
26/03:00pm 22.9 18.2 3.4 28 9.6 W 17 35 9 19 1019.2 1017.5 0.0
26/02:30pm 22.6 17.3 3.2 28 9.5 WSW 20 35 11 19 1019.5 1017.7 0.0
26/02:00pm 22.2 17.0 3.3 29 9.3 W 20 32 11 17 1019.7 1017.9 0.0
26/01:30pm 22.6 16.5 4.6 31 9.1 W 26 39 14 21 1020.0 1018.2 0.0
26/01:00pm 21.9 16.3 3.6 30 9.0 W 22 35 12 19 1020.1 1018.3 0.0
26/12:30pm 21.8 16.9 3.9 31 8.9 W 19 26 10 14 1020.3 1018.6 0.0
26/12:00pm 20.7 16.0 3.4 32 8.4 WNW 17 24 9 13 1020.4 1018.7 0.0
26/11:30am 20.1 17.0 5.4 38 7.4 WNW 11 28 6 15 1020.6 1018.9 0.0
26/11:00am 19.2 16.9 7.3 46 6.2 NNE 9 13 5 7 1020.8 1019.1 0.0
26/10:30am 18.1 16.8 9.2 56 4.8 NE 6 9 3 5 1021.0 1019.3 0.0
26/10:00am 16.5 17.2 12.3 76 2.4 CALM 0 4 0 2 1020.9 1019.2 0.0
26/09:30am 13.8 14.3 11.5 86 1.3 CALM 0 0 0 0 1020.7 1019.0 0.0
26/09:00am 12.7 13.3 11.8 94 0.5 CALM 0 6 0 3 1020.5 1018.8 0.0
26/08:30am 10.6 10.7 10.3 98 0.2 CALM 0 0 0 0 1020.5 1018.8 0.0
26/08:00am 8.8 8.5 8.5 98 0.1 CALM 0 0 0 0 1020.2 1018.5 0.0
26/07:30am 8.3 7.8 8.0 98 0.1 CALM 0 7 0 4 1019.9 1018.1 0.0
26/07:00am 8.1 7.6 7.8 98 0.1 CALM 0 0 0 0 1019.6 1017.8 0.0
26/06:30am 8.7 8.3 8.4 98 0.1 CALM 0 0 0 0 1019.1 1017.4 0.0
26/06:00am 8.4 8.0 8.1 98 0.1 CALM 0 0 0 0 1018.8 1017.1 0.0
26/05:30am 9.2 9.0 8.9 98 0.2 CALM 0 0 0 0 1018.6 1016.9 0.0
26/05:00am 8.8 7.3 8.5 98 0.1 NNE 6 7 3 4 1018.7 1017.0 0.0
26/04:30am 10.3 10.4 10.0 98 0.2 CALM 0 0 0 0 1018.5 1016.8 0.0
26/04:00am 9.3 9.0 8.5 95 0.4 CALM 0 0 0 0 1018.5 1016.8 0.0
26/03:30am 10.1 9.9 9.0 93 0.6 CALM 0 0 0 0 1018.5 1016.8 0.0
26/03:00am 10.8 10.7 9.4 91 0.7 CALM 0 0 0 0 1018.7 1017.0 0.0
26/02:30am 10.7 10.5 9.1 90 0.8 CALM 0 4 0 2 1018.8 1017.1 0.0
26/02:00am 11.5 10.2 9.2 86 1.2 NE 6 9 3 5 1018.8 1017.1 0.0
26/01:30am 11.8 11.5 8.6 81 1.6 CALM 0 0 0 0 1018.9 1017.2 0.0
26/01:00am 12.1 11.1 8.8 80 1.7 ESE 4 7 2 4 1018.9 1017.2 0.0
26/12:30am 11.7 11.2 7.8 77 1.9 CALM 0 0 0 0 1018.9 1017.2 0.0
26/12:00am 13.0 12.6 8.1 72 2.5 CALM 0 0 0 0 1018.9 1017.2 0.0
 
Date/Time
EDT
Temp
°C
App
Temp
°C
Dew
Point
Rel
Hum
%
Delta-T
°C
Wind Press
QNH
hPa
Press
MSL
hPa
Rain
since 9 am
mm
Dir
 
Spd
km/h
Gust
km/h
Spd
kts
Gust
kts
25/11:30pm 12.9 12.5 8.4 74 2.3 CALM 0 0 0 0 1019.0 1017.3 0.0
25/11:00pm 13.0 11.3 7.7 70 2.7 NNE 6 6 3 3 1019.0 1017.3 0.0
25/10:30pm 13.9 12.1 7.9 67 3.0 NNE 7 11 4 6 1018.8 1017.1 0.0
25/10:00pm 14.3 13.8 8.0 66 3.2 CALM 0 0 0 0 1018.4 1016.7 0.0
25/09:30pm 15.7 13.8 8.9 64 3.6 E 9 11 5 6 1018.1 1016.3 0.0
25/09:00pm 15.3 13.8 9.0 66 3.3 NNE 7 9 4 5 1017.6 1015.8 0.0
25/08:30pm 16.4 15.5 9.1 62 3.9 ENE 4 9 2 5 1017.2 1015.4 0.0
25/08:00pm 17.8 16.2 8.9 56 4.7 NNE 7 9 4 5 1016.7 1015.0 0.0
25/07:30pm 20.5 18.5 7.2 42 7.0 W 7 11 4 6 1016.5 1014.8 0.0
25/07:00pm 22.8 21.1 7.4 37 8.2 NE 6 7 3 4 1016.3 1014.5 0.0
25/06:30pm 24.0 21.9 5.8 31 9.5 NE 6 9 3 5 1016.1 1014.3 0.0
25/06:00pm 24.6 22.1 4.9 28 10.1 NW 7 13 4 7 1015.9 1014.1 0.0
25/05:30pm 24.6 21.1 5.4 29 10.0 NNW 13 20 7 11 1015.8 1014.0 0.0
25/05:00pm 24.7 21.3 3.9 26 10.5 NW 11 20 6 11 1015.8 1014.0 0.0
25/04:30pm 24.9 22.7 5.2 28 10.2 WNW 6 13 3 7 1015.8 1014.0 0.0
25/04:00pm 24.4 21.4 6.2 31 9.6 N 11 20 6 11 1016.2 1014.4 0.0
25/03:30pm 24.6 21.6 5.9 30 9.8 NNW 11 20 6 11 1016.2 1014.4 0.0
25/03:00pm 24.3 19.8 4.1 27 10.2 N 17 24 9 13 1016.4 1014.7 0.0
25/02:30pm 23.4 20.9 6.7 34 8.8 NNE 9 17 5 9 1016.4 1014.7 0.0
25/02:00pm 23.3 20.7 4.3 29 9.6 NNW 7 13 4 7 1016.5 1014.8 0.0
25/01:30pm 22.5 19.9 5.9 34 8.6 ENE 9 17 5 9 1017.2 1015.4 0.0
25/01:00pm 22.0 19.9 6.7 37 8.0 ENE 7 17 4 9 1017.4 1015.6 0.0

Other Formats:

Comma delimited format used in spreadsheet applications
http://www.bom.gov.au/fwo/IDN60801/IDN60801.94727.axf

JavaScript Object Notation format (JSON) in row-major order
http://www.bom.gov.au/fwo/IDN60801/IDN60801.94727.json